sensor_id;sensor_type;location;lat;lon;timestamp;P1;durP1;ratioP1;P2;durP2;ratioP2
22103;SDS011;11218;48.886;9.426;2023-02-10T00:01:33;86.03;;;29.60;;
22103;SDS011;11218;48.886;9.426;2023-02-10T00:04:02;86.83;;;30.93;;
22103;SDS011;11218;48.886;9.426;2023-02-10T00:06:32;85.50;;;30.00;;
22103;SDS011;11218;48.886;9.426;2023-02-10T00:09:00;92.03;;;31.77;;
22103;SDS011;11218;48.886;9.426;2023-02-10T00:11:29;94.10;;;33.60;;
22103;SDS011;11218;48.886;9.426;2023-02-10T00:14:15;97.97;;;34.17;;
22103;SDS011;11218;48.886;9.426;2023-02-10T00:16:44;88.40;;;30.10;;
22103;SDS011;11218;48.886;9.426;2023-02-10T00:19:13;99.00;;;33.73;;
22103;SDS011;11218;48.886;9.426;2023-02-10T00:21:43;75.90;;;31.40;;
22103;SDS011;11218;48.886;9.426;2023-02-10T00:24:11;95.10;;;32.07;;
22103;SDS011;11218;48.886;9.426;2023-02-10T00:26:39;88.07;;;31.63;;
22103;SDS011;11218;48.886;9.426;2023-02-10T00:29:07;110.90;;;36.47;;
22103;SDS011;11218;48.886;9.426;2023-02-10T00:31:35;92.97;;;32.90;;
22103;SDS011;11218;48.886;9.426;2023-02-10T00:34:03;86.80;;;30.97;;
22103;SDS011;11218;48.886;9.426;2023-02-10T00:36:32;87.40;;;32.33;;
22103;SDS011;11218;48.886;9.426;2023-02-10T00:39:01;86.83;;;30.17;;
22103;SDS011;11218;48.886;9.426;2023-02-10T00:41:29;86.07;;;30.63;;
22103;SDS011;11218;48.886;9.426;2023-02-10T00:43:57;84.80;;;30.73;;
22103;SDS011;11218;48.886;9.426;2023-02-10T00:46:26;80.90;;;30.93;;
22103;SDS011;11218;48.886;9.426;2023-02-10T00:48:54;74.47;;;29.60;;
22103;SDS011;11218;48.886;9.426;2023-02-10T00:51:22;83.20;;;31.23;;
22103;SDS011;11218;48.886;9.426;2023-02-10T00:53:50;70.93;;;28.57;;
22103;SDS011;11218;48.886;9.426;2023-02-10T00:56:20;99.57;;;33.33;;
22103;SDS011;11218;48.886;9.426;2023-02-10T00:58:48;74.67;;;26.77;;
22103;SDS011;11218;48.886;9.426;2023-02-10T01:01:17;84.70;;;32.43;;
22103;SDS011;11218;48.886;9.426;2023-02-10T01:03:45;71.57;;;28.27;;
22103;SDS011;11218;48.886;9.426;2023-02-10T01:06:13;82.97;;;29.63;;
22103;SDS011;11218;48.886;9.426;2023-02-10T01:08:42;106.60;;;32.23;;
22103;SDS011;11218;48.886;9.426;2023-02-10T01:11:10;91.07;;;30.33;;
22103;SDS011;11218;48.886;9.426;2023-02-10T01:13:41;94.00;;;30.87;;
22103;SDS011;11218;48.886;9.426;2023-02-10T01:16:11;74.20;;;29.13;;
22103;SDS011;11218;48.886;9.426;2023-02-10T01:18:43;79.93;;;29.17;;
22103;SDS011;11218;48.886;9.426;2023-02-10T01:21:12;72.93;;;27.00;;
22103;SDS011;11218;48.886;9.426;2023-02-10T01:23:42;78.53;;;28.63;;
22103;SDS011;11218;48.886;9.426;2023-02-10T01:26:10;84.13;;;28.93;;
22103;SDS011;11218;48.886;9.426;2023-02-10T01:28:39;82.63;;;30.27;;
22103;SDS011;11218;48.886;9.426;2023-02-10T01:31:10;76.23;;;29.30;;
22103;SDS011;11218;48.886;9.426;2023-02-10T01:33:41;85.33;;;29.97;;
22103;SDS011;11218;48.886;9.426;2023-02-10T01:36:10;78.03;;;29.40;;
22103;SDS011;11218;48.886;9.426;2023-02-10T01:38:40;91.23;;;31.43;;
22103;SDS011;11218;48.886;9.426;2023-02-10T01:41:09;76.33;;;29.03;;
22103;SDS011;11218;48.886;9.426;2023-02-10T01:43:55;76.23;;;27.90;;
22103;SDS011;11218;48.886;9.426;2023-02-10T01:46:26;75.37;;;26.97;;
22103;SDS011;11218;48.886;9.426;2023-02-10T01:48:55;100.13;;;31.53;;
22103;SDS011;11218;48.886;9.426;2023-02-10T01:51:27;71.90;;;27.80;;
22103;SDS011;11218;48.886;9.426;2023-02-10T01:54:01;77.10;;;28.43;;
22103;SDS011;11218;48.886;9.426;2023-02-10T01:56:31;75.17;;;26.87;;
22103;SDS011;11218;48.886;9.426;2023-02-10T01:59:01;78.77;;;27.73;;
22103;SDS011;11218;48.886;9.426;2023-02-10T02:01:30;85.60;;;28.93;;
22103;SDS011;11218;48.886;9.426;2023-02-10T02:03:58;82.10;;;29.27;;
22103;SDS011;11218;48.886;9.426;2023-02-10T02:06:29;87.00;;;30.13;;
22103;SDS011;11218;48.886;9.426;2023-02-10T02:08:58;78.40;;;28.27;;
22103;SDS011;11218;48.886;9.426;2023-02-10T02:11:28;79.90;;;28.03;;
22103;SDS011;11218;48.886;9.426;2023-02-10T02:14:10;82.73;;;30.00;;
22103;SDS011;11218;48.886;9.426;2023-02-10T02:17:01;76.93;;;28.57;;
22103;SDS011;11218;48.886;9.426;2023-02-10T02:20:00;85.73;;;30.07;;
22103;SDS011;11218;48.886;9.426;2023-02-10T02:23:15;74.90;;;27.47;;
22103;SDS011;11218;48.886;9.426;2023-02-10T02:29:05;77.87;;;28.03;;
22103;SDS011;11218;48.886;9.426;2023-02-10T02:31:57;76.17;;;28.00;;
22103;SDS011;11218;48.886;9.426;2023-02-10T02:34:30;77.77;;;28.17;;
22103;SDS011;11218;48.886;9.426;2023-02-10T02:37:07;80.27;;;28.63;;
22103;SDS011;11218;48.886;9.426;2023-02-10T02:39:40;79.90;;;29.57;;
22103;SDS011;11218;48.886;9.426;2023-02-10T02:42:14;81.50;;;30.33;;
22103;SDS011;11218;48.886;9.426;2023-02-10T02:44:46;83.27;;;29.80;;
22103;SDS011;11218;48.886;9.426;2023-02-10T02:47:21;83.97;;;29.90;;
22103;SDS011;11218;48.886;9.426;2023-02-10T02:50:10;85.30;;;30.30;;
22103;SDS011;11218;48.886;9.426;2023-02-10T02:52:50;79.70;;;29.00;;
22103;SDS011;11218;48.886;9.426;2023-02-10T02:55:36;88.97;;;30.40;;
22103;SDS011;11218;48.886;9.426;2023-02-10T02:58:15;85.47;;;29.70;;
22103;SDS011;11218;48.886;9.426;2023-02-10T03:00:45;76.17;;;27.00;;
22103;SDS011;11218;48.886;9.426;2023-02-10T03:03:17;74.97;;;28.27;;
22103;SDS011;11218;48.886;9.426;2023-02-10T03:05:46;91.57;;;30.33;;
22103;SDS011;11218;48.886;9.426;2023-02-10T03:08:15;99.13;;;33.23;;
22103;SDS011;11218;48.886;9.426;2023-02-10T03:10:43;85.53;;;30.30;;
22103;SDS011;11218;48.886;9.426;2023-02-10T03:13:11;82.70;;;30.27;;
22103;SDS011;11218;48.886;9.426;2023-02-10T03:15:39;84.13;;;29.67;;
22103;SDS011;11218;48.886;9.426;2023-02-10T03:18:08;72.87;;;25.67;;
22103;SDS011;11218;48.886;9.426;2023-02-10T03:20:39;84.37;;;29.83;;
22103;SDS011;11218;48.886;9.426;2023-02-10T03:23:07;79.67;;;29.60;;
22103;SDS011;11218;48.886;9.426;2023-02-10T03:25:35;84.10;;;29.13;;
22103;SDS011;11218;48.886;9.426;2023-02-10T03:28:04;79.07;;;28.37;;
22103;SDS011;11218;48.886;9.426;2023-02-10T03:30:33;85.27;;;31.57;;
22103;SDS011;11218;48.886;9.426;2023-02-10T03:33:01;84.77;;;29.43;;
22103;SDS011;11218;48.886;9.426;2023-02-10T03:35:29;82.00;;;29.50;;
22103;SDS011;11218;48.886;9.426;2023-02-10T03:38:04;76.97;;;27.33;;
22103;SDS011;11218;48.886;9.426;2023-02-10T03:40:32;73.83;;;27.17;;
22103;SDS011;11218;48.886;9.426;2023-02-10T03:43:00;86.93;;;29.33;;
22103;SDS011;11218;48.886;9.426;2023-02-10T03:45:28;84.63;;;28.67;;
22103;SDS011;11218;48.886;9.426;2023-02-10T03:47:56;82.53;;;29.10;;
22103;SDS011;11218;48.886;9.426;2023-02-10T03:50:25;73.90;;;26.97;;
22103;SDS011;11218;48.886;9.426;2023-02-10T03:52:53;80.23;;;28.37;;
22103;SDS011;11218;48.886;9.426;2023-02-10T03:55:23;75.90;;;26.77;;
22103;SDS011;11218;48.886;9.426;2023-02-10T03:57:51;80.37;;;28.50;;
22103;SDS011;11218;48.886;9.426;2023-02-10T04:00:19;81.63;;;28.67;;
22103;SDS011;11218;48.886;9.426;2023-02-10T04:02:48;79.37;;;28.97;;
22103;SDS011;11218;48.886;9.426;2023-02-10T04:05:16;78.50;;;27.87;;
22103;SDS011;11218;48.886;9.426;2023-02-10T04:07:44;91.60;;;31.00;;
22103;SDS011;11218;48.886;9.426;2023-02-10T04:10:13;82.67;;;29.73;;
22103;SDS011;11218;48.886;9.426;2023-02-10T04:12:43;72.60;;;27.30;;
22103;SDS011;11218;48.886;9.426;2023-02-10T04:15:11;75.83;;;27.77;;
22103;SDS011;11218;48.886;9.426;2023-02-10T04:17:40;72.97;;;27.13;;
22103;SDS011;11218;48.886;9.426;2023-02-10T04:20:08;86.03;;;29.93;;
22103;SDS011;11218;48.886;9.426;2023-02-10T04:22:37;74.17;;;30.07;;
22103;SDS011;11218;48.886;9.426;2023-02-10T04:25:09;112.43;;;40.50;;
22103;SDS011;11218;48.886;9.426;2023-02-10T04:27:37;139.80;;;47.03;;
22103;SDS011;11218;48.886;9.426;2023-02-10T04:30:08;133.87;;;45.73;;
22103;SDS011;11218;48.886;9.426;2023-02-10T04:32:37;143.37;;;48.83;;
22103;SDS011;11218;48.886;9.426;2023-02-10T04:35:05;111.20;;;41.23;;
22103;SDS011;11218;48.886;9.426;2023-02-10T04:37:34;123.63;;;41.80;;
22103;SDS011;11218;48.886;9.426;2023-02-10T04:40:02;117.67;;;42.27;;
22103;SDS011;11218;48.886;9.426;2023-02-10T04:42:31;113.60;;;40.17;;
22103;SDS011;11218;48.886;9.426;2023-02-10T04:44:59;117.73;;;40.17;;
22103;SDS011;11218;48.886;9.426;2023-02-10T04:47:29;104.67;;;36.13;;
22103;SDS011;11218;48.886;9.426;2023-02-10T04:49:57;118.20;;;38.20;;
22103;SDS011;11218;48.886;9.426;2023-02-10T04:52:25;108.63;;;39.07;;
22103;SDS011;11218;48.886;9.426;2023-02-10T04:54:54;107.47;;;36.70;;
22103;SDS011;11218;48.886;9.426;2023-02-10T04:57:22;97.43;;;35.47;;
22103;SDS011;11218;48.886;9.426;2023-02-10T04:59:50;106.37;;;35.83;;
22103;SDS011;11218;48.886;9.426;2023-02-10T05:02:18;101.33;;;35.17;;
22103;SDS011;11218;48.886;9.426;2023-02-10T05:04:47;97.47;;;33.73;;
22103;SDS011;11218;48.886;9.426;2023-02-10T05:07:16;95.93;;;35.10;;
22103;SDS011;11218;48.886;9.426;2023-02-10T05:09:46;94.87;;;32.90;;
22103;SDS011;11218;48.886;9.426;2023-02-10T05:12:14;86.17;;;31.30;;
22103;SDS011;11218;48.886;9.426;2023-02-10T05:14:42;81.93;;;29.00;;
22103;SDS011;11218;48.886;9.426;2023-02-10T05:17:10;95.63;;;32.17;;
22103;SDS011;11218;48.886;9.426;2023-02-10T05:19:38;82.70;;;30.30;;
22103;SDS011;11218;48.886;9.426;2023-02-10T05:22:08;99.67;;;33.53;;
22103;SDS011;11218;48.886;9.426;2023-02-10T05:24:36;90.87;;;32.70;;
22103;SDS011;11218;48.886;9.426;2023-02-10T05:27:04;83.50;;;30.03;;
22103;SDS011;11218;48.886;9.426;2023-02-10T05:29:32;96.33;;;33.20;;
22103;SDS011;11218;48.886;9.426;2023-02-10T05:32:01;102.60;;;33.77;;
22103;SDS011;11218;48.886;9.426;2023-02-10T05:34:29;84.07;;;31.50;;
22103;SDS011;11218;48.886;9.426;2023-02-10T05:36:57;83.87;;;29.10;;
22103;SDS011;11218;48.886;9.426;2023-02-10T05:39:27;82.33;;;30.27;;
22103;SDS011;11218;48.886;9.426;2023-02-10T05:41:56;86.37;;;30.00;;
22103;SDS011;11218;48.886;9.426;2023-02-10T05:44:27;82.07;;;30.47;;
22103;SDS011;11218;48.886;9.426;2023-02-10T05:46:57;79.67;;;30.83;;
22103;SDS011;11218;48.886;9.426;2023-02-10T05:49:25;90.23;;;30.93;;
22103;SDS011;11218;48.886;9.426;2023-02-10T05:51:54;87.80;;;31.60;;
22103;SDS011;11218;48.886;9.426;2023-02-10T05:54:22;75.37;;;29.53;;
22103;SDS011;11218;48.886;9.426;2023-02-10T05:56:52;103.73;;;34.33;;
22103;SDS011;11218;48.886;9.426;2023-02-10T05:59:20;95.20;;;33.63;;
22103;SDS011;11218;48.886;9.426;2023-02-10T06:01:48;85.30;;;30.97;;
22103;SDS011;11218;48.886;9.426;2023-02-10T06:04:17;77.37;;;29.20;;
22103;SDS011;11218;48.886;9.426;2023-02-10T06:06:45;80.20;;;29.57;;
22103;SDS011;11218;48.886;9.426;2023-02-10T06:09:16;86.33;;;30.17;;
22103;SDS011;11218;48.886;9.426;2023-02-10T06:11:44;80.03;;;27.57;;
22103;SDS011;11218;48.886;9.426;2023-02-10T06:14:14;80.17;;;29.63;;
22103;SDS011;11218;48.886;9.426;2023-02-10T06:16:43;89.90;;;32.27;;
22103;SDS011;11218;48.886;9.426;2023-02-10T06:19:11;82.80;;;31.80;;
22103;SDS011;11218;48.886;9.426;2023-02-10T06:21:39;91.43;;;31.00;;
22103;SDS011;11218;48.886;9.426;2023-02-10T06:24:07;84.00;;;30.27;;
22103;SDS011;11218;48.886;9.426;2023-02-10T06:26:36;91.63;;;30.87;;
22103;SDS011;11218;48.886;9.426;2023-02-10T06:29:04;82.93;;;28.83;;
22103;SDS011;11218;48.886;9.426;2023-02-10T06:31:34;84.37;;;28.37;;
22103;SDS011;11218;48.886;9.426;2023-02-10T06:34:02;79.30;;;29.17;;
22103;SDS011;11218;48.886;9.426;2023-02-10T06:36:31;74.23;;;28.77;;
22103;SDS011;11218;48.886;9.426;2023-02-10T06:39:00;79.50;;;27.47;;
22103;SDS011;11218;48.886;9.426;2023-02-10T06:41:28;87.00;;;30.67;;
22103;SDS011;11218;48.886;9.426;2023-02-10T06:43:57;73.20;;;27.67;;
22103;SDS011;11218;48.886;9.426;2023-02-10T06:46:25;84.40;;;29.53;;
22103;SDS011;11218;48.886;9.426;2023-02-10T06:48:55;82.37;;;29.30;;
22103;SDS011;11218;48.886;9.426;2023-02-10T06:51:25;76.43;;;28.23;;
22103;SDS011;11218;48.886;9.426;2023-02-10T06:53:54;80.83;;;28.80;;
22103;SDS011;11218;48.886;9.426;2023-02-10T06:56:22;105.30;;;33.63;;
22103;SDS011;11218;48.886;9.426;2023-02-10T06:58:50;83.93;;;31.33;;
22103;SDS011;11218;48.886;9.426;2023-02-10T07:01:18;90.93;;;31.13;;
22103;SDS011;11218;48.886;9.426;2023-02-10T07:03:46;83.43;;;30.40;;
22103;SDS011;11218;48.886;9.426;2023-02-10T07:06:16;75.43;;;28.63;;
22103;SDS011;11218;48.886;9.426;2023-02-10T07:08:44;85.97;;;31.63;;
22103;SDS011;11218;48.886;9.426;2023-02-10T07:11:12;87.20;;;31.30;;
22103;SDS011;11218;48.886;9.426;2023-02-10T07:13:41;98.67;;;32.07;;
22103;SDS011;11218;48.886;9.426;2023-02-10T07:16:10;93.83;;;32.17;;
22103;SDS011;11218;48.886;9.426;2023-02-10T07:18:41;90.17;;;31.67;;
22103;SDS011;11218;48.886;9.426;2023-02-10T07:21:09;91.47;;;31.03;;
22103;SDS011;11218;48.886;9.426;2023-02-10T07:23:39;93.00;;;33.17;;
22103;SDS011;11218;48.886;9.426;2023-02-10T07:26:08;103.43;;;34.67;;
22103;SDS011;11218;48.886;9.426;2023-02-10T07:28:38;93.87;;;32.23;;
22103;SDS011;11218;48.886;9.426;2023-02-10T07:31:06;91.70;;;31.10;;
22103;SDS011;11218;48.886;9.426;2023-02-10T07:33:34;88.67;;;31.73;;
22103;SDS011;11218;48.886;9.426;2023-02-10T07:36:04;93.17;;;32.37;;
22103;SDS011;11218;48.886;9.426;2023-02-10T07:38:33;94.07;;;31.90;;
22103;SDS011;11218;48.886;9.426;2023-02-10T07:41:03;90.33;;;31.87;;
22103;SDS011;11218;48.886;9.426;2023-02-10T07:43:33;86.77;;;30.53;;
22103;SDS011;11218;48.886;9.426;2023-02-10T07:46:01;93.30;;;33.20;;
22103;SDS011;11218;48.886;9.426;2023-02-10T07:48:30;87.17;;;32.53;;
22103;SDS011;11218;48.886;9.426;2023-02-10T07:50:59;98.70;;;35.67;;
22103;SDS011;11218;48.886;9.426;2023-02-10T07:53:27;98.07;;;34.30;;
22103;SDS011;11218;48.886;9.426;2023-02-10T07:55:57;100.23;;;36.57;;
22103;SDS011;11218;48.886;9.426;2023-02-10T07:58:27;92.37;;;33.90;;
22103;SDS011;11218;48.886;9.426;2023-02-10T08:00:56;100.37;;;36.00;;
22103;SDS011;11218;48.886;9.426;2023-02-10T08:03:24;110.20;;;38.30;;
22103;SDS011;11218;48.886;9.426;2023-02-10T08:05:52;103.27;;;37.47;;
22103;SDS011;11218;48.886;9.426;2023-02-10T08:08:20;112.53;;;39.53;;
22103;SDS011;11218;48.886;9.426;2023-02-10T08:10:48;89.37;;;34.90;;
22103;SDS011;11218;48.886;9.426;2023-02-10T08:13:17;112.70;;;38.87;;
22103;SDS011;11218;48.886;9.426;2023-02-10T08:15:46;114.83;;;39.30;;
22103;SDS011;11218;48.886;9.426;2023-02-10T08:18:15;125.23;;;39.67;;
22103;SDS011;11218;48.886;9.426;2023-02-10T08:20:44;115.63;;;40.63;;
22103;SDS011;11218;48.886;9.426;2023-02-10T08:23:13;107.27;;;37.33;;
22103;SDS011;11218;48.886;9.426;2023-02-10T08:25:42;105.47;;;37.27;;
22103;SDS011;11218;48.886;9.426;2023-02-10T08:28:11;112.30;;;38.97;;
22103;SDS011;11218;48.886;9.426;2023-02-10T08:30:39;113.50;;;39.67;;
22103;SDS011;11218;48.886;9.426;2023-02-10T08:33:08;102.87;;;37.50;;
22103;SDS011;11218;48.886;9.426;2023-02-10T08:35:37;105.50;;;37.03;;
22103;SDS011;11218;48.886;9.426;2023-02-10T08:38:06;105.43;;;38.00;;
22103;SDS011;11218;48.886;9.426;2023-02-10T08:40:36;105.07;;;37.83;;
22103;SDS011;11218;48.886;9.426;2023-02-10T08:43:04;100.30;;;37.57;;
22103;SDS011;11218;48.886;9.426;2023-02-10T08:45:32;103.73;;;38.57;;
22103;SDS011;11218;48.886;9.426;2023-02-10T08:48:00;119.07;;;42.80;;
22103;SDS011;11218;48.886;9.426;2023-02-10T08:50:30;116.20;;;43.10;;
22103;SDS011;11218;48.886;9.426;2023-02-10T08:52:58;113.03;;;42.33;;
22103;SDS011;11218;48.886;9.426;2023-02-10T08:55:26;100.90;;;39.10;;
22103;SDS011;11218;48.886;9.426;2023-02-10T08:57:55;129.13;;;45.83;;
22103;SDS011;11218;48.886;9.426;2023-02-10T09:00:23;114.87;;;40.00;;
22103;SDS011;11218;48.886;9.426;2023-02-10T09:02:52;104.70;;;36.30;;
22103;SDS011;11218;48.886;9.426;2023-02-10T09:05:42;96.63;;;33.87;;
22103;SDS011;11218;48.886;9.426;2023-02-10T09:08:12;109.43;;;35.13;;
22103;SDS011;11218;48.886;9.426;2023-02-10T09:10:41;98.33;;;33.67;;
22103;SDS011;11218;48.886;9.426;2023-02-10T09:13:10;92.37;;;33.03;;
22103;SDS011;11218;48.886;9.426;2023-02-10T09:15:39;94.87;;;32.13;;
22103;SDS011;11218;48.886;9.426;2023-02-10T09:18:09;90.67;;;31.73;;
22103;SDS011;11218;48.886;9.426;2023-02-10T09:20:38;97.17;;;33.03;;
22103;SDS011;11218;48.886;9.426;2023-02-10T09:23:07;94.77;;;32.30;;
22103;SDS011;11218;48.886;9.426;2023-02-10T09:25:37;91.80;;;32.20;;
22103;SDS011;11218;48.886;9.426;2023-02-10T09:28:05;87.43;;;31.67;;
22103;SDS011;11218;48.886;9.426;2023-02-10T09:30:34;86.00;;;29.47;;
22103;SDS011;11218;48.886;9.426;2023-02-10T09:33:03;91.63;;;32.90;;
22103;SDS011;11218;48.886;9.426;2023-02-10T09:35:31;103.93;;;36.13;;
22103;SDS011;11218;48.886;9.426;2023-02-10T09:37:59;112.07;;;38.78;;
22103;SDS011;11218;48.886;9.426;2023-02-10T09:40:31;100.95;;;34.83;;
22103;SDS011;11218;48.886;9.426;2023-02-10T09:43:04;100.82;;;33.40;;
22103;SDS011;11218;48.886;9.426;2023-02-10T09:45:42;106.78;;;33.78;;
22103;SDS011;11218;48.886;9.426;2023-02-10T09:48:18;112.03;;;34.67;;
22103;SDS011;11218;48.886;9.426;2023-02-10T09:50:57;78.10;;;29.02;;
22103;SDS011;11218;48.886;9.426;2023-02-10T09:53:31;92.15;;;30.83;;
22103;SDS011;11218;48.886;9.426;2023-02-10T09:56:01;78.25;;;29.38;;
22103;SDS011;11218;48.886;9.426;2023-02-10T09:58:32;93.70;;;32.10;;
22103;SDS011;11218;48.886;9.426;2023-02-10T10:01:05;69.78;;;26.92;;
22103;SDS011;11218;48.886;9.426;2023-02-10T10:03:42;80.10;;;30.85;;
22103;SDS011;11218;48.886;9.426;2023-02-10T10:06:20;80.72;;;29.42;;
22103;SDS011;11218;48.886;9.426;2023-02-10T10:08:54;83.05;;;29.85;;
22103;SDS011;11218;48.886;9.426;2023-02-10T10:11:33;82.15;;;29.02;;
22103;SDS011;11218;48.886;9.426;2023-02-10T10:14:05;84.63;;;29.88;;
22103;SDS011;11218;48.886;9.426;2023-02-10T10:16:55;71.82;;;25.75;;
22103;SDS011;11218;48.886;9.426;2023-02-10T10:19:46;71.15;;;27.00;;
22103;SDS011;11218;48.886;9.426;2023-02-10T10:22:40;70.68;;;25.95;;
22103;SDS011;11218;48.886;9.426;2023-02-10T10:25:21;90.05;;;30.23;;
22103;SDS011;11218;48.886;9.426;2023-02-10T10:28:05;77.65;;;28.33;;
22103;SDS011;11218;48.886;9.426;2023-02-10T10:30:45;75.88;;;26.80;;
22103;SDS011;11218;48.886;9.426;2023-02-10T10:33:20;69.00;;;26.25;;
22103;SDS011;11218;48.886;9.426;2023-02-10T10:35:51;88.57;;;28.02;;
22103;SDS011;11218;48.886;9.426;2023-02-10T10:38:22;81.80;;;27.40;;
22103;SDS011;11218;48.886;9.426;2023-02-10T10:40:52;62.90;;;25.92;;
22103;SDS011;11218;48.886;9.426;2023-02-10T10:43:26;80.22;;;27.45;;
22103;SDS011;11218;48.886;9.426;2023-02-10T10:45:59;85.30;;;28.17;;
22103;SDS011;11218;48.886;9.426;2023-02-10T10:48:32;75.90;;;28.70;;
22103;SDS011;11218;48.886;9.426;2023-02-10T10:51:05;80.32;;;27.85;;
22103;SDS011;11218;48.886;9.426;2023-02-10T10:53:37;82.70;;;28.52;;
22103;SDS011;11218;48.886;9.426;2023-02-10T10:56:11;68.95;;;27.10;;
22103;SDS011;11218;48.886;9.426;2023-02-10T10:58:45;87.47;;;30.00;;
22103;SDS011;11218;48.886;9.426;2023-02-10T11:01:17;67.45;;;25.83;;
22103;SDS011;11218;48.886;9.426;2023-02-10T11:04:02;64.20;;;25.45;;
22103;SDS011;11218;48.886;9.426;2023-02-10T11:06:33;64.57;;;25.45;;
22103;SDS011;11218;48.886;9.426;2023-02-10T11:09:05;67.72;;;24.95;;
22103;SDS011;11218;48.886;9.426;2023-02-10T11:11:43;72.07;;;26.13;;
22103;SDS011;11218;48.886;9.426;2023-02-10T11:14:15;61.47;;;24.65;;
22103;SDS011;11218;48.886;9.426;2023-02-10T11:16:45;71.97;;;25.80;;
22103;SDS011;11218;48.886;9.426;2023-02-10T11:19:18;68.38;;;25.48;;
22103;SDS011;11218;48.886;9.426;2023-02-10T11:21:49;74.25;;;26.30;;
22103;SDS011;11218;48.886;9.426;2023-02-10T11:24:20;66.45;;;24.98;;
22103;SDS011;11218;48.886;9.426;2023-02-10T11:26:54;67.20;;;24.30;;
22103;SDS011;11218;48.886;9.426;2023-02-10T11:29:25;69.05;;;24.25;;
22103;SDS011;11218;48.886;9.426;2023-02-10T11:31:55;70.78;;;24.67;;
22103;SDS011;11218;48.886;9.426;2023-02-10T11:34:25;63.53;;;22.63;;
22103;SDS011;11218;48.886;9.426;2023-02-10T11:36:56;72.05;;;24.40;;
22103;SDS011;11218;48.886;9.426;2023-02-10T11:39:27;66.63;;;23.55;;
22103;SDS011;11218;48.886;9.426;2023-02-10T11:42:06;62.13;;;22.75;;
22103;SDS011;11218;48.886;9.426;2023-02-10T11:44:38;66.15;;;22.88;;
22103;SDS011;11218;48.886;9.426;2023-02-10T11:47:12;63.78;;;23.02;;
22103;SDS011;11218;48.886;9.426;2023-02-10T11:49:44;79.88;;;25.05;;
22103;SDS011;11218;48.886;9.426;2023-02-10T11:52:16;68.00;;;22.23;;
22103;SDS011;11218;48.886;9.426;2023-02-10T11:54:48;64.03;;;21.05;;
22103;SDS011;11218;48.886;9.426;2023-02-10T11:57:21;59.33;;;21.35;;
22103;SDS011;11218;48.886;9.426;2023-02-10T12:00:19;65.82;;;21.88;;
22103;SDS011;11218;48.886;9.426;2023-02-10T12:03:01;60.80;;;21.60;;
22103;SDS011;11218;48.886;9.426;2023-02-10T12:05:45;70.97;;;22.98;;
22103;SDS011;11218;48.886;9.426;2023-02-10T12:08:24;75.32;;;22.92;;
22103;SDS011;11218;48.886;9.426;2023-02-10T12:11:02;61.40;;;20.63;;
22103;SDS011;11218;48.886;9.426;2023-02-10T12:13:41;66.43;;;21.83;;
22103;SDS011;11218;48.886;9.426;2023-02-10T12:16:22;88.03;;;26.15;;
22103;SDS011;11218;48.886;9.426;2023-02-10T12:18:58;70.25;;;22.67;;
22103;SDS011;11218;48.886;9.426;2023-02-10T12:21:38;79.50;;;25.30;;
22103;SDS011;11218;48.886;9.426;2023-02-10T12:24:35;87.40;;;26.40;;
22103;SDS011;11218;48.886;9.426;2023-02-10T12:27:17;92.35;;;27.73;;
22103;SDS011;11218;48.886;9.426;2023-02-10T12:29:52;92.38;;;26.38;;
22103;SDS011;11218;48.886;9.426;2023-02-10T12:32:33;97.65;;;27.75;;
22103;SDS011;11218;48.886;9.426;2023-02-10T12:35:19;79.72;;;25.55;;
22103;SDS011;11218;48.886;9.426;2023-02-10T12:38:00;77.47;;;25.13;;
22103;SDS011;11218;48.886;9.426;2023-02-10T12:40:46;81.28;;;24.55;;
22103;SDS011;11218;48.886;9.426;2023-02-10T12:43:27;79.40;;;25.17;;
22103;SDS011;11218;48.886;9.426;2023-02-10T12:46:08;81.88;;;25.83;;
22103;SDS011;11218;48.886;9.426;2023-02-10T12:48:48;87.88;;;26.88;;
22103;SDS011;11218;48.886;9.426;2023-02-10T12:51:27;95.55;;;28.08;;
22103;SDS011;11218;48.886;9.426;2023-02-10T12:54:05;97.80;;;28.20;;
22103;SDS011;11218;48.886;9.426;2023-02-10T12:56:39;89.50;;;26.35;;
22103;SDS011;11218;48.886;9.426;2023-02-10T12:59:12;89.15;;;26.92;;
22103;SDS011;11218;48.886;9.426;2023-02-10T13:01:45;87.70;;;26.00;;
22103;SDS011;11218;48.886;9.426;2023-02-10T13:04:20;85.88;;;24.45;;
22103;SDS011;11218;48.886;9.426;2023-02-10T13:06:52;91.75;;;26.88;;
22103;SDS011;11218;48.886;9.426;2023-02-10T13:09:27;84.93;;;26.10;;
22103;SDS011;11218;48.886;9.426;2023-02-10T13:12:09;99.93;;;29.05;;
22103;SDS011;11218;48.886;9.426;2023-02-10T13:14:43;89.85;;;26.95;;
22103;SDS011;11218;48.886;9.426;2023-02-10T13:17:15;86.40;;;27.00;;
22103;SDS011;11218;48.886;9.426;2023-02-10T13:19:48;98.78;;;28.83;;
22103;SDS011;11218;48.886;9.426;2023-02-10T13:22:21;87.65;;;26.95;;
22103;SDS011;11218;48.886;9.426;2023-02-10T13:25:00;94.22;;;28.58;;
22103;SDS011;11218;48.886;9.426;2023-02-10T13:27:38;88.05;;;26.65;;
22103;SDS011;11218;48.886;9.426;2023-02-10T13:30:36;82.00;;;26.23;;
22103;SDS011;11218;48.886;9.426;2023-02-10T13:33:18;84.35;;;25.90;;
22103;SDS011;11218;48.886;9.426;2023-02-10T13:35:56;75.25;;;24.88;;
22103;SDS011;11218;48.886;9.426;2023-02-10T13:38:27;83.90;;;26.55;;
22103;SDS011;11218;48.886;9.426;2023-02-10T13:41:00;94.32;;;27.35;;
22103;SDS011;11218;48.886;9.426;2023-02-10T13:43:42;86.20;;;27.10;;
22103;SDS011;11218;48.886;9.426;2023-02-10T13:46:18;77.85;;;26.30;;
22103;SDS011;11218;48.886;9.426;2023-02-10T13:48:51;87.93;;;28.48;;
22103;SDS011;11218;48.886;9.426;2023-02-10T13:51:29;97.65;;;28.13;;
22103;SDS011;11218;48.886;9.426;2023-02-10T13:53:59;90.72;;;28.33;;
22103;SDS011;11218;48.886;9.426;2023-02-10T13:56:29;90.45;;;28.13;;
22103;SDS011;11218;48.886;9.426;2023-02-10T13:59:01;78.13;;;26.58;;
22103;SDS011;11218;48.886;9.426;2023-02-10T14:01:35;86.75;;;27.10;;
22103;SDS011;11218;48.886;9.426;2023-02-10T14:04:05;99.53;;;28.48;;
22103;SDS011;11218;48.886;9.426;2023-02-10T14:06:54;92.72;;;27.70;;
22103;SDS011;11218;48.886;9.426;2023-02-10T14:09:31;89.38;;;27.35;;
22103;SDS011;11218;48.886;9.426;2023-02-10T14:12:04;82.93;;;26.65;;
22103;SDS011;11218;48.886;9.426;2023-02-10T14:14:50;88.40;;;27.67;;
22103;SDS011;11218;48.886;9.426;2023-02-10T14:17:19;90.03;;;27.00;;
22103;SDS011;11218;48.886;9.426;2023-02-10T14:19:54;88.43;;;27.52;;
22103;SDS011;11218;48.886;9.426;2023-02-10T14:22:26;78.75;;;26.00;;
22103;SDS011;11218;48.886;9.426;2023-02-10T14:24:59;100.45;;;28.27;;
22103;SDS011;11218;48.886;9.426;2023-02-10T14:27:45;88.22;;;26.48;;
22103;SDS011;11218;48.886;9.426;2023-02-10T14:30:17;87.47;;;26.50;;
22103;SDS011;11218;48.886;9.426;2023-02-10T14:32:48;83.05;;;26.17;;
22103;SDS011;11218;48.886;9.426;2023-02-10T14:35:18;93.15;;;28.63;;
22103;SDS011;11218;48.886;9.426;2023-02-10T14:37:56;92.88;;;28.45;;
22103;SDS011;11218;48.886;9.426;2023-02-10T14:40:27;95.50;;;27.90;;
22103;SDS011;11218;48.886;9.426;2023-02-10T14:42:57;71.57;;;24.27;;
22103;SDS011;11218;48.886;9.426;2023-02-10T14:45:36;84.10;;;26.40;;
22103;SDS011;11218;48.886;9.426;2023-02-10T14:48:07;81.03;;;25.60;;
22103;SDS011;11218;48.886;9.426;2023-02-10T14:50:35;90.10;;;28.05;;